Time;durP1;ratioP1;P1;durP2;ratioP2;P2;SDS_P1;SDS_P2;PMS_P1;PMS_P2;Temp;Humidity;BMP_temperature;BMP_pressure;BME280_temperature;BME280_humidity;BME280_pressure;Samples;Min_cycle;Max_cycle;Signal;HPM_P1;HPM_P2
2022/12/07 00:04:40;;;;;;;10.2;5.9;;;;;;;3.1;89.7;98300;;;;
2022/12/07 00:15:40;;;;;;;10.2;5.9;;;;;;;3;89.8;98300;;;;
2022/12/07 00:25:40;;;;;;;10.1;5.8;;;;;;;3.1;89.8;98300;;;;
2022/12/07 00:35:40;;;;;;;10.1;5.8;;;;;;;3.2;89.8;98290;;;;
2022/12/07 00:46:40;;;;;;;10.1;5.8;;;;;;;3.1;89.4;98290;;;;
2022/12/07 00:56:40;;;;;;;9.2;5.7;;;;;;;3.1;89.7;98280;;;;
2022/12/07 01:07:40;;;;;;;9.2;5.7;;;;;;;3.2;89.7;98280;;;;
2022/12/07 01:17:40;;;;;;;9.2;5.7;;;;;;;3.3;89.7;98270;;;;
2022/12/07 01:28:40;;;;;;;9.2;5.2;;;;;;;3.4;89.4;98260;;;;
2022/12/07 01:38:40;;;;;;;9.2;5.2;;;;;;;3.3;89.3;98260;;;;
2022/12/07 01:48:40;;;;;;;10.9;5.2;;;;;;;3.2;89.3;98250;;;;
2022/12/07 01:59:40;;;;;;;10.9;5.2;;;;;;;3.2;89;98250;;;;
2022/12/07 02:09:40;;;;;;;10.9;5.2;;;;;;;3.1;88.7;98250;;;;
2022/12/07 02:20:40;;;;;;;9.3;5.4;;;;;;;3.1;88.7;98240;;;;
2022/12/07 02:31:40;;;;;;;9.3;5.4;;;;;;;3.2;88.8;98240;;;;
2022/12/07 02:42:40;;;;;;;9.3;5.4;;;;;;;3.3;88.8;98240;;;;
2022/12/07 02:53:40;;;;;;;9.4;5.8;;;;;;;3.3;88.7;98240;;;;
2022/12/07 03:04:40;;;;;;;9.4;5.8;;;;;;;3.3;88.6;98220;;;;
2022/12/07 03:14:40;;;;;;;9.4;5.8;;;;;;;3.2;88.7;98220;;;;
2022/12/07 03:25:40;;;;;;;13.8;7.1;;;;;;;3.2;89;98220;;;;
2022/12/07 03:35:40;;;;;;;13.8;7.1;;;;;;;3.2;88.8;98210;;;;
2022/12/07 03:45:40;;;;;;;13.8;7.1;;;;;;;3.3;88.9;98200;;;;
2022/12/07 03:55:40;;;;;;;10.3;6.3;;;;;;;3.2;88.7;98200;;;;
2022/12/07 04:06:40;;;;;;;10.3;6.3;;;;;;;3.3;88.9;98190;;;;
2022/12/07 04:17:40;;;;;;;12.3;6.4;;;;;;;3;89.9;98190;;;;
2022/12/07 04:28:40;;;;;;;12.3;6.4;;;;;;;3.1;90.5;98190;;;;
2022/12/07 04:38:40;;;;;;;12.3;6.4;;;;;;;3.2;90.3;98170;;;;
2022/12/07 04:48:40;;;;;;;9.6;5.4;;;;;;;3.3;90.1;98180;;;;
2022/12/07 04:58:40;;;;;;;9.6;5.4;;;;;;;3.3;90.2;98180;;;;
2022/12/07 05:09:40;;;;;;;9.6;5.4;;;;;;;3.3;90.2;98180;;;;
2022/12/07 05:19:40;;;;;;;9.7;5.7;;;;;;;3.4;90.1;98180;;;;
2022/12/07 05:30:40;;;;;;;9.7;5.7;;;;;;;3.4;90.1;98180;;;;
2022/12/07 05:42:24;;;;;;;9.7;5.7;;;;;;;3.3;90.4;98190;;;;
2022/12/07 05:52:40;;;;;;;9.3;5.6;;;;;;;3.3;90.9;98190;;;;
2022/12/07 06:02:40;;;;;;;9.3;5.6;;;;;;;3.3;91.2;98210;;;;
2022/12/07 06:13:40;;;;;;;9.3;5.6;;;;;;;3.1;91;98210;;;;
2022/12/07 06:23:40;;;;;;;11.1;5.6;;;;;;;2.9;90.5;98220;;;;
2022/12/07 06:34:40;;;;;;;11.1;5.6;;;;;;;2.7;90.5;98220;;;;
2022/12/07 06:45:40;;;;;;;11.1;5.6;;;;;;;2.6;90.5;98230;;;;
2022/12/07 06:56:40;;;;;;;7.9;4;;;;;;;2.5;90.7;98230;;;;
2022/12/07 07:07:40;;;;;;;7.9;4;;;;;;;2.4;91;98240;;;;
2022/12/07 07:17:40;;;;;;;10.4;6.5;;;;;;;2.4;91;98250;;;;
2022/12/07 07:28:40;;;;;;;10.4;6.5;;;;;;;2.5;90.9;98240;;;;
2022/12/07 07:39:40;;;;;;;10.4;6.5;;;;;;;2.4;91;98250;;;;
2022/12/07 07:49:40;;;;;;;11.4;6.3;;;;;;;2.4;91.3;98240;;;;
2022/12/07 08:00:40;;;;;;;11.4;6.3;;;;;;;2.5;91.2;98260;;;;
2022/12/07 08:10:40;;;;;;;11.4;6.3;;;;;;;2.6;91;98260;;;;
2022/12/07 08:21:40;;;;;;;11.3;6.8;;;;;;;2.8;91.1;98270;;;;
2022/12/07 08:31:40;;;;;;;11.3;6.8;;;;;;;2.9;90.4;98270;;;;
2022/12/07 08:41:40;;;;;;;11.3;6.8;;;;;;;3.1;90.3;98280;;;;
2022/12/07 08:51:40;;;;;;;11.1;7;;;;;;;3.2;90.1;98280;;;;
2022/12/07 09:02:40;;;;;;;11.1;7;;;;;;;3.3;89.6;98290;;;;
2022/12/07 09:12:40;;;;;;;11.1;7;;;;;;;3.5;89.3;98280;;;;
2022/12/07 09:23:40;;;;;;;8.8;5.6;;;;;;;3.8;88.8;98270;;;;
2022/12/07 09:33:41;;;;;;;8.8;5.6;;;;;;;3.9;88.3;98270;;;;
2022/12/07 09:43:40;;;;;;;8.8;5.6;;;;;;;3.7;87.9;98260;;;;
2022/12/07 09:53:40;;;;;;;11.7;5.3;;;;;;;3.8;88;98250;;;;
2022/12/07 10:04:40;;;;;;;11.7;5.3;;;;;;;3.9;88;98250;;;;
2022/12/07 10:15:40;;;;;;;11.7;5.3;;;;;;;4.1;87.7;98240;;;;
2022/12/07 10:25:42;;;;;;;11.1;7.3;;;;;;;4.1;87.3;98230;;;;
2022/12/07 10:36:40;;;;;;;11.1;7.3;;;;;;;4.3;86.6;98220;;;;
2022/12/07 10:47:40;;;;;;;15.6;11.1;;;;;;;4.4;86.3;98210;;;;
2022/12/07 10:57:41;;;;;;;15.6;11.1;;;;;;;4.4;85.5;98200;;;;
2022/12/07 11:08:40;;;;;;;15.6;11.1;;;;;;;4.5;84.7;98190;;;;
2022/12/07 11:18:40;;;;;;;16.6;10.8;;;;;;;4.9;83.9;98190;;;;
2022/12/07 11:29:40;;;;;;;16.6;10.8;;;;;;;5;82.2;98180;;;;
2022/12/07 11:39:40;;;;;;;16.6;10.8;;;;;;;5;82.3;98180;;;;
2022/12/07 11:50:40;;;;;;;9.2;5.6;;;;;;;5.1;82;98170;;;;
2022/12/07 12:00:40;;;;;;;9.2;5.6;;;;;;;5.1;81.5;98170;;;;
2022/12/07 12:10:40;;;;;;;9.2;5.6;;;;;;;5.1;80.9;98160;;;;
2022/12/07 12:20:40;;;;;;;6.7;4.5;;;;;;;5.1;79.4;98150;;;;
2022/12/07 12:30:40;;;;;;;6.7;4.5;;;;;;;5;79;98150;;;;
2022/12/07 12:40:40;;;;;;;6.7;4.5;;;;;;;4.8;78.7;98140;;;;
2022/12/07 12:51:40;;;;;;;10.1;6.3;;;;;;;4.6;77.8;98140;;;;
2022/12/07 13:02:40;;;;;;;10.1;6.3;;;;;;;4.4;76.7;98150;;;;
2022/12/07 13:13:40;;;;;;;10.1;6.3;;;;;;;4.4;77.4;98160;;;;
2022/12/07 13:24:40;;;;;;;4.4;2.8;;;;;;;4.5;77.2;98140;;;;
2022/12/07 13:34:41;;;;;;;4.4;2.8;;;;;;;4.6;77.5;98150;;;;
2022/12/07 13:45:47;;;;;;;4.4;2.8;;;;;;;4.3;77.5;98170;;;;
2022/12/07 13:55:40;;;;;;;7.6;4.8;;;;;;;4.3;77.9;98170;;;;
2022/12/07 14:06:40;;;;;;;7.6;4.8;;;;;;;4.1;77.2;98170;;;;
2022/12/07 14:16:41;;;;;;;7.6;4.5;;;;;;;3.8;76.8;98180;;;;
2022/12/07 14:27:40;;;;;;;7.6;4.5;;;;;;;3.5;76.6;98180;;;;
2022/12/07 14:37:40;;;;;;;7.6;4.5;;;;;;;3.3;77;98180;;;;
2022/12/07 14:48:40;;;;;;;6.8;3.4;;;;;;;3.3;77.6;98170;;;;
2022/12/07 14:58:40;;;;;;;6.8;3.4;;;;;;;3.4;77.8;98170;;;;
2022/12/07 15:08:41;;;;;;;6.8;3.4;;;;;;;3.3;78.7;98190;;;;
2022/12/07 15:19:41;;;;;;;9.6;5.3;;;;;;;3.3;79.6;98180;;;;
2022/12/07 15:30:42;;;;;;;9.6;5.3;;;;;;;3.4;79.9;98190;;;;
2022/12/07 15:41:41;;;;;;;9.6;5.3;;;;;;;3.4;79.8;98200;;;;
2022/12/07 15:51:40;;;;;;;11.3;6.8;;;;;;;3.5;79.7;98210;;;;
2022/12/07 16:01:41;;;;;;;11.3;6.8;;;;;;;3.5;79.6;98210;;;;
2022/12/07 16:12:40;;;;;;;11.3;6.8;;;;;;;3.5;79.7;98220;;;;
2022/12/07 16:22:41;;;;;;;14.7;8.1;;;;;;;3.5;79.5;98220;;;;
2022/12/07 16:33:41;;;;;;;14.7;8.1;;;;;;;3.5;79.1;98220;;;;
2022/12/07 16:43:41;;;;;;;14.7;8.1;;;;;;;3.5;79;98220;;;;
2022/12/07 16:54:41;;;;;;;14.6;9.2;;;;;;;3.6;77.8;98230;;;;
2022/12/07 17:05:41;;;;;;;14.6;9.2;;;;;;;3.6;77.1;98230;;;;
2022/12/07 17:16:43;;;;;;;13;7.1;;;;;;;3.5;76.5;98230;;;;
2022/12/07 17:27:41;;;;;;;13;7.1;;;;;;;3.3;76.7;98240;;;;
2022/12/07 17:38:41;;;;;;;13;7.1;;;;;;;3.1;77.3;98240;;;;
2022/12/07 17:48:41;;;;;;;10.1;4.8;;;;;;;2.9;77.6;98250;;;;
2022/12/07 17:58:41;;;;;;;10.1;4.8;;;;;;;2.7;78.1;98250;;;;
2022/12/07 18:08:41;;;;;;;10.1;4.8;;;;;;;2.6;78.8;98250;;;;
2022/12/07 18:19:41;;;;;;;10.5;5.5;;;;;;;2.8;78.6;98240;;;;
2022/12/07 18:29:41;;;;;;;10.5;5.5;;;;;;;2.9;78.1;98240;;;;
2022/12/07 18:40:41;;;;;;;10.5;5.5;;;;;;;3;77.5;98240;;;;
2022/12/07 18:50:41;;;;;;;10.2;5.1;;;;;;;3;77.7;98230;;;;
2022/12/07 19:00:41;;;;;;;10.2;5.1;;;;;;;2.8;78.9;98240;;;;
2022/12/07 19:10:41;;;;;;;10.2;5.1;;;;;;;2.7;79.5;98240;;;;
2022/12/07 19:20:41;;;;;;;14.9;9.4;;;;;;;2.6;79.9;98240;;;;
2022/12/07 19:30:41;;;;;;;14.9;9.4;;;;;;;2.7;80.1;98240;;;;
2022/12/07 19:41:42;;;;;;;14.9;9.4;;;;;;;2.7;79.9;98240;;;;
2022/12/07 19:52:41;;;;;;;18.4;11.8;;;;;;;2.9;79.8;98240;;;;
2022/12/07 20:02:41;;;;;;;18.4;11.8;;;;;;;2.9;79.7;98240;;;;
2022/12/07 20:13:41;;;;;;;18.4;11.8;;;;;;;3;79;98240;;;;
2022/12/07 20:23:41;;;;;;;14.4;8.7;;;;;;;3.1;78.7;98240;;;;
2022/12/07 20:33:41;;;;;;;14.4;8.7;;;;;;;3.2;78.3;98240;;;;
2022/12/07 20:43:41;;;;;;;14.4;8.7;;;;;;;3.3;77.6;98250;;;;
2022/12/07 20:54:41;;;;;;;12.3;6;;;;;;;3.3;76.5;98260;;;;
2022/12/07 21:04:41;;;;;;;12.3;6;;;;;;;3.3;75.9;98260;;;;
2022/12/07 21:14:41;;;;;;;12.3;6;;;;;;;3.3;75.8;98250;;;;
2022/12/07 21:25:41;;;;;;;10.2;5.5;;;;;;;3.3;75.4;98260;;;;
2022/12/07 21:36:41;;;;;;;10.2;5.5;;;;;;;3.3;74.8;98260;;;;
2022/12/07 21:46:41;;;;;;;8.2;3.8;;;;;;;3.4;74.1;98260;;;;
2022/12/07 21:57:41;;;;;;;8.2;3.8;;;;;;;3.4;73.4;98260;;;;
2022/12/07 22:07:41;;;;;;;8.2;3.8;;;;;;;3.4;73.1;98270;;;;
2022/12/07 22:17:41;;;;;;;5.3;2.8;;;;;;;3.4;73.1;98280;;;;
2022/12/07 22:27:43;;;;;;;5.3;2.8;;;;;;;3.5;73.6;98270;;;;
2022/12/07 22:38:41;;;;;;;5.3;2.8;;;;;;;3.4;73.1;98270;;;;
2022/12/07 22:49:41;;;;;;;6.6;3.1;;;;;;;3.3;73.4;98270;;;;
2022/12/07 22:59:41;;;;;;;6.6;3.1;;;;;;;3.3;73.4;98270;;;;
2022/12/07 23:09:41;;;;;;;6.6;3.1;;;;;;;3.3;73.9;98280;;;;
2022/12/07 23:19:41;;;;;;;5.8;3.1;;;;;;;3.3;74.3;98270;;;;
2022/12/07 23:30:41;;;;;;;5.8;3.1;;;;;;;3.2;74.5;98280;;;;
2022/12/07 23:40:41;;;;;;;5.8;3.1;;;;;;;3.2;75;98280;;;;
2022/12/07 23:51:41;;;;;;;5.5;3.4;;;;;;;3.2;75;98280;;;;
